Time;durP1;ratioP1;P1;durP2;ratioP2;P2;SDS_P1;SDS_P2;PMS_P1;PMS_P2;Temp;Humidity;BMP_temperature;BMP_pressure;BME280_temperature;BME280_humidity;BME280_pressure;Samples;Min_cycle;Max_cycle;Signal;HPM_P1;HPM_P2
2022/09/04 00:01:18;;;;;;;8.10;6.10;;;;;;;12.50;97.50;101612.63;109411;1228;70827;-73
2022/09/04 00:04:34;;;;;;;7.90;6.40;;;;;;;12.48;97.95;101610.98;109342;1228;71937;-70
2022/09/04 00:07:28;;;;;;;10.80;6.70;;;;;;;12.45;98.34;101611.70;108569;1235;62182;-75
2022/09/04 00:10:55;;;;;;;9.10;6.40;;;;;;;12.46;98.53;101619.71;109440;1228;60263;-74
2022/09/04 00:13:30;;;;;;;9.20;6.50;;;;;;;12.47;99.00;101620.84;109380;1228;74699;-74
2022/09/04 00:16:13;;;;;;;11.60;6.50;;;;;;;12.46;98.72;101624.55;109425;1227;69933;-73
2022/09/04 00:19:22;;;;;;;11.20;6.40;;;;;;;12.45;98.35;101624.81;109149;1231;67875;-73
2022/09/04 00:21:52;;;;;;;8.00;6.00;;;;;;;12.47;97.97;101627.66;109420;1227;71198;-74
2022/09/04 00:24:27;;;;;;;9.00;6.00;;;;;;;12.45;97.88;101630.95;109477;1227;60593;-75
2022/09/04 00:27:25;;;;;;;9.50;5.50;;;;;;;12.42;97.62;101633.58;109599;1228;60269;-74
2022/09/04 00:30:06;;;;;;;8.10;6.00;;;;;;;12.40;98.18;101631.29;109366;1228;73065;-75
2022/09/04 00:33:07;;;;;;;8.10;6.00;;;;;;;12.38;98.15;101631.76;109501;1227;71676;-73
2022/09/04 00:35:45;;;;;;;8.10;6.20;;;;;;;12.40;99.07;101631.24;109374;1227;69781;-74
2022/09/04 00:38:20;;;;;;;8.60;6.10;;;;;;;12.43;98.89;101630.36;109413;1227;73891;-74
2022/09/04 00:41:31;;;;;;;9.30;5.90;;;;;;;12.46;98.63;101636.27;109326;1228;60442;-74
2022/09/04 00:44:33;;;;;;;8.40;6.60;;;;;;;12.49;98.14;101636.81;109451;1227;61021;-76
2022/09/04 00:48:02;;;;;;;7.30;6.10;;;;;;;12.52;97.93;101635.17;109504;1227;74797;-75
2022/09/04 00:51:26;;;;;;;8.50;6.00;;;;;;;12.55;97.47;101625.74;108968;1228;71641;-71
2022/09/04 00:54:34;;;;;;;9.60;7.00;;;;;;;12.68;96.83;101635.91;109427;1227;71340;-75
2022/09/04 00:57:38;;;;;;;7.80;5.90;;;;;;;12.69;95.77;101640.16;109339;1227;72833;-77
2022/09/04 01:00:13;;;;;;;9.30;6.30;;;;;;;12.71;95.79;101641.78;109252;1227;61317;-77
2022/09/04 01:03:02;;;;;;;10.40;6.70;;;;;;;12.66;96.17;101643.00;109396;1227;60270;-74
2022/09/04 01:05:58;;;;;;;8.90;6.30;;;;;;;12.54;97.03;101645.36;109375;1227;73262;-73
2022/09/04 01:09:06;;;;;;;8.00;6.20;;;;;;;12.55;97.81;101642.02;109498;1227;71506;-74
2022/09/04 01:12:18;;;;;;;8.40;6.40;;;;;;;12.55;97.89;101643.06;109121;1227;70102;-76
2022/09/04 01:15:13;;;;;;;8.50;6.20;;;;;;;12.54;97.79;101647.52;108716;1233;75420;-75
2022/09/04 01:17:58;;;;;;;13.70;6.40;;;;;;;12.51;98.13;101645.79;109487;1228;62745;-73
2022/09/04 01:21:15;;;;;;;8.70;6.20;;;;;;;12.46;97.97;101642.36;109583;1227;58891;-74
2022/09/04 01:24:08;;;;;;;8.50;5.80;;;;;;;12.43;98.32;101642.94;109310;1228;73409;-74
2022/09/04 01:27:00;;;;;;;7.40;6.20;;;;;;;12.42;98.58;101644.42;107972;1227;69840;-73
2022/09/04 01:29:34;;;;;;;10.70;6.00;;;;;;;12.42;98.23;101639.30;109257;1225;70449;-74
2022/09/04 01:32:41;;;;;;;9.40;6.00;;;;;;;12.43;98.09;101637.15;109377;1228;71796;-73
2022/09/04 01:35:34;;;;;;;9.10;6.00;;;;;;;12.48;97.88;101636.33;109574;1226;61412;-74
2022/09/04 01:38:17;;;;;;;11.30;6.00;;;;;;;12.48;97.31;101638.09;109386;1228;59614;-73
2022/09/04 01:41:12;;;;;;;;;;;;;;;12.45;97.00;101636.52;109477;1227;74102;-73
2022/09/04 01:43:40;;;;;;;8.60;5.60;;;;;;;12.37;96.70;101637.23;109461;1226;72915;-74
2022/09/04 01:46:33;;;;;;;8.80;6.00;;;;;;;12.31;97.43;101642.70;109293;1228;71255;-73
2022/09/04 01:49:33;;;;;;;8.50;5.50;;;;;;;12.26;98.26;101645.83;109500;1227;75258;-70
2022/09/04 01:52:06;;;;;;;9.30;6.40;;;;;;;12.22;98.67;101646.80;109459;1227;63842;-71
2022/09/04 01:54:45;;;;;;;7.90;5.90;;;;;;;12.25;98.72;101651.98;109527;1227;60611;-74
2022/09/04 01:57:40;;;;;;;8.80;6.10;;;;;;;12.26;98.75;101648.61;109468;1228;73489;-74
2022/09/04 02:00:08;;;;;;;10.40;5.70;;;;;;;12.32;99.02;101653.65;109438;1227;71730;-73
2022/09/04 02:03:11;;;;;;;9.80;5.60;;;;;;;12.36;98.94;101651.08;109365;1228;69389;-74
2022/09/04 02:06:12;;;;;;;7.30;6.20;;;;;;;12.36;98.60;101650.40;109267;1227;73065;-74
2022/09/04 02:09:07;;;;;;;8.50;6.10;;;;;;;12.36;98.68;101648.83;109669;1227;63412;-77
2022/09/04 02:11:35;;;;;;;6.50;5.40;;;;;;;12.35;98.85;101646.63;109499;1227;60047;-75
2022/09/04 02:14:39;;;;;;;10.00;6.00;;;;;;;12.35;99.02;101641.17;109417;1229;72487;-75
2022/09/04 02:17:31;;;;;;;8.40;5.80;;;;;;;12.34;98.63;101634.79;109545;1227;70600;-74
2022/09/04 02:20:15;;;;;;;9.30;5.90;;;;;;;12.33;98.59;101637.00;109565;1227;69949;-73
2022/09/04 02:23:28;;;;;;;10.00;5.90;;;;;;;12.32;98.91;101635.30;109463;1227;72999;-74
2022/09/04 02:26:36;;;;;;;7.40;5.50;;;;;;;12.34;98.73;101636.21;109284;1227;60830;-72
2022/09/04 02:29:31;;;;;;;8.00;6.00;;;;;;;12.33;98.25;101639.11;109441;1227;59529;-72
2022/09/04 02:32:19;;;;;;;8.20;5.60;;;;;;;12.28;97.69;101636.77;109418;1227;74540;-71
2022/09/04 02:35:11;;;;;;;7.20;6.10;;;;;;;12.24;98.37;101635.13;109336;1226;72036;-74
2022/09/04 02:38:24;;;;;;;8.70;6.10;;;;;;;12.23;98.69;101635.21;109521;1226;70109;-77
2022/09/04 02:42:02;;;;;;;7.90;6.50;;;;;;;12.24;98.90;101633.73;109559;1227;72088;-72
2022/09/04 02:45:04;;;;;;;7.60;5.80;;;;;;;12.26;98.77;101639.36;109334;1228;60713;-75
2022/09/04 02:48:02;;;;;;;10.40;7.10;;;;;;;12.27;97.86;101642.11;109457;1227;60580;-76
2022/09/04 02:50:52;;;;;;;11.00;7.50;;;;;;;12.22;97.62;101637.87;109307;1229;72852;-74
2022/09/04 02:53:45;;;;;;;11.30;7.20;;;;;;;12.19;98.34;101632.79;109383;1228;70870;-76
2022/09/04 02:56:47;;;;;;;8.00;6.70;;;;;;;12.25;99.48;101635.58;109316;1227;67953;-74
2022/09/04 02:59:26;;;;;;;11.60;6.90;;;;;;;12.30;99.83;101633.67;109414;1227;73286;-76
2022/09/04 03:01:58;;;;;;;7.80;6.70;;;;;;;12.31;99.52;101631.89;109214;1227;62548;-73
2022/09/04 03:04:48;;;;;;;10.10;6.70;;;;;;;12.37;99.83;101633.58;109410;1227;60079;-73
2022/09/04 03:07:42;;;;;;;8.00;5.90;;;;;;;12.44;99.65;101635.05;109593;1226;73713;-73
2022/09/04 03:10:34;;;;;;;9.50;6.70;;;;;;;12.55;99.29;101637.14;109474;1227;70935;-77
2022/09/04 03:13:19;;;;;;;10.80;7.50;;;;;;;12.60;98.68;101642.20;109409;1227;66983;-75
2022/09/04 03:16:15;;;;;;;11.30;7.90;;;;;;;12.65;98.48;101640.80;109566;1228;74099;-73
2022/09/04 03:19:14;;;;;;;12.50;7.20;;;;;;;12.66;98.32;101639.89;109389;1228;63559;-73
2022/09/04 03:22:35;;;;;;;10.90;6.50;;;;;;;12.64;98.45;101636.30;109347;1227;59389;-72
2022/09/04 03:25:33;;;;;;;11.20;7.00;;;;;;;12.62;98.63;101634.52;109355;1228;73749;-72
2022/09/04 03:28:01;;;;;;;11.70;7.60;;;;;;;12.62;98.72;101632.06;109560;1227;70782;-75
2022/09/04 03:30:33;;;;;;;7.00;6.30;;;;;;;12.62;98.88;101637.15;109396;1227;70543;-74
2022/09/04 03:33:35;;;;;;;9.00;6.60;;;;;;;12.66;98.81;101639.89;109298;1229;72768;-73
2022/09/04 03:36:14;;;;;;;8.10;6.70;;;;;;;12.69;98.47;101642.09;109350;1228;63145;-72
2022/09/04 03:39:18;;;;;;;8.60;6.70;;;;;;;12.70;98.15;101642.57;109290;1226;61035;-71
2022/09/04 03:41:57;;;;;;;;;;;;;;;12.71;98.30;101651.41;109332;1228;73104;-76
2022/09/04 03:44:46;;;;;;;11.60;7.60;;;;;;;12.71;97.89;101652.98;109595;1227;69548;-73
2022/09/04 03:48:08;;;;;;;10.30;7.40;;;;;;;12.68;97.49;101655.11;109444;1227;70753;-74
2022/09/04 03:51:09;;;;;;;11.70;7.80;;;;;;;12.67;97.33;101653.77;109618;1227;73971;-72
2022/09/04 03:54:14;;;;;;;10.40;7.40;;;;;;;12.66;97.66;101656.45;109510;1227;63604;-74
2022/09/04 03:56:58;;;;;;;10.50;6.90;;;;;;;12.70;96.98;101662.99;109304;1228;60309;-75
2022/09/04 03:59:36;;;;;;;10.60;8.00;;;;;;;12.71;97.62;101667.84;109867;1226;73246;-73
2022/09/04 04:02:46;;;;;;;12.30;7.90;;;;;;;12.76;97.59;101672.80;109692;1226;71513;-76
2022/09/04 04:05:41;;;;;;;10.80;7.40;;;;;;;12.80;97.39;101674.56;109261;1228;69646;-74
2022/09/04 04:09:00;;;;;;;11.50;7.70;;;;;;;12.84;96.97;101675.02;109443;1227;74332;-74
2022/09/04 04:11:49;;;;;;;11.00;6.80;;;;;;;12.87;96.77;101674.98;109028;1229;61133;-78
2022/09/04 04:15:04;;;;;;;13.10;7.80;;;;;;;12.88;96.84;101677.77;109537;1227;61227;-77
2022/09/04 04:18:12;;;;;;;13.90;7.40;;;;;;;12.89;97.08;101682.88;109153;1227;72541;-75
2022/09/04 04:20:43;;;;;;;10.40;6.80;;;;;;;12.92;96.98;101687.62;109392;1227;70356;-75
2022/09/04 04:23:42;;;;;;;9.30;7.10;;;;;;;12.97;96.62;101688.15;109300;1227;70838;-75
2022/09/04 04:27:17;;;;;;;8.10;6.20;;;;;;;13.04;96.31;101691.88;109149;1227;72501;-75
2022/09/04 04:30:12;;;;;;;8.20;6.30;;;;;;;13.06;94.83;101698.92;109106;1227;61390;-74
2022/09/04 04:33:16;;;;;;;11.30;6.30;;;;;;;13.00;95.09;101699.68;109544;1227;59004;-74
2022/09/04 04:35:53;;;;;;;9.30;6.70;;;;;;;13.02;94.97;101698.31;109372;1227;73643;-74
2022/09/04 04:38:49;;;;;;;7.90;6.40;;;;;;;13.06;94.67;101696.98;109719;1226;69775;-72
2022/09/04 04:42:03;;;;;;;10.10;6.70;;;;;;;13.08;94.23;101695.10;109871;1227;68630;-72
2022/09/04 04:48:06;;;;;;;8.40;6.60;;;;;;;13.18;94.55;101701.06;109667;1227;61780;-72
2022/09/04 04:51:08;;;;;;;8.70;6.60;;;;;;;13.26;94.35;101701.77;109696;1225;59580;-74
2022/09/04 04:54:06;;;;;;;8.80;6.60;;;;;;;13.31;94.15;101696.05;109441;1228;73699;-74
2022/09/04 04:56:55;;;;;;;9.00;7.20;;;;;;;13.33;94.08;101701.69;109680;1226;72423;-78
2022/09/04 04:59:54;;;;;;;7.40;6.40;;;;;;;13.40;93.92;101704.98;109581;1227;68835;-72
2022/09/04 05:02:34;;;;;;;9.60;6.80;;;;;;;13.53;93.92;101709.52;109445;1227;72876;-75
2022/09/04 05:05:25;;;;;;;10.60;7.00;;;;;;;13.60;92.97;101714.33;109555;1227;61728;-73
2022/09/04 05:08:24;;;;;;;8.60;6.90;;;;;;;13.69;92.58;101717.73;109529;1227;61286;-75
2022/09/04 05:11:20;;;;;;;9.00;6.50;;;;;;;13.85;92.33;101719.95;109471;1227;73110;-74
2022/09/04 05:14:29;;;;;;;9.00;6.80;;;;;;;14.02;91.46;101721.54;109651;1226;72776;-74
2022/09/04 05:17:24;;;;;;;10.00;7.40;;;;;;;14.01;91.34;101727.54;109067;1227;69025;-75
2022/09/04 05:20:31;;;;;;;12.50;7.30;;;;;;;14.03;91.57;101730.73;109451;1227;72749;-75
2022/09/04 05:23:24;;;;;;;9.70;6.70;;;;;;;14.03;90.42;101732.13;109583;1227;62355;-73
2022/09/04 05:26:20;;;;;;;10.70;7.10;;;;;;;14.24;90.72;101732.71;109441;1227;60756;-73
2022/09/04 05:29:10;;;;;;;10.70;7.30;;;;;;;14.42;90.06;101729.87;109244;1229;73014;-76
2022/09/04 05:32:02;;;;;;;10.70;8.00;;;;;;;14.66;89.47;101734.66;109386;1227;70480;-73
2022/09/04 05:35:09;;;;;;;10.90;7.50;;;;;;;14.78;89.15;101728.84;109284;1229;69178;-76
2022/09/04 05:37:46;;;;;;;12.90;7.30;;;;;;;14.93;88.34;101724.74;109395;1227;73084;-74
2022/09/04 05:40:36;;;;;;;10.70;6.60;;;;;;;15.09;88.39;101726.89;109460;1227;61126;-72
2022/09/04 05:43:09;;;;;;;7.60;5.80;;;;;;;15.30;86.36;101730.34;109139;1229;58915;-71
2022/09/04 05:46:24;;;;;;;7.50;5.80;;;;;;;15.44;85.28;101729.86;109312;1227;73701;-74
2022/09/04 05:49:41;;;;;;;7.90;6.20;;;;;;;15.53;82.93;101734.06;109070;1227;73622;-74
2022/09/04 05:52:16;;;;;;;10.60;6.90;;;;;;;15.63;83.49;101739.61;109489;1227;68153;-70
2022/09/04 05:55:10;;;;;;;8.40;6.40;;;;;;;15.67;83.20;101743.89;109479;1227;73508;-73
2022/09/04 05:58:10;;;;;;;7.40;6.70;;;;;;;15.84;82.72;101747.64;109340;1228;63365;-72
2022/09/04 06:00:53;;;;;;;10.00;6.00;;;;;;;15.89;80.89;101751.83;109541;1227;61814;-76
2022/09/04 06:04:05;;;;;;;7.80;5.70;;;;;;;16.26;79.16;101747.52;109351;1228;73256;-70
2022/09/04 06:07:28;;;;;;;9.30;6.40;;;;;;;16.28;78.39;101749.64;108748;1227;72758;-68
2022/09/04 06:10:23;;;;;;;7.00;5.70;;;;;;;16.37;77.33;101748.70;108607;1235;71123;-70
2022/09/04 06:13:25;;;;;;;8.40;5.70;;;;;;;16.40;77.57;101750.96;108596;1235;63028;-69
2022/09/04 06:16:18;;;;;;;8.80;5.30;;;;;;;16.66;76.74;101754.12;109464;1227;62233;-69
2022/09/04 06:19:20;;;;;;;11.00;5.70;;;;;;;16.84;75.10;101757.63;109306;1226;61027;-70
2022/09/04 06:22:41;;;;;;;7.80;4.60;;;;;;;17.05;74.19;101761.84;109539;1227;74898;-69
2022/09/04 06:25:46;;;;;;;7.10;4.20;;;;;;;17.27;71.58;101759.78;109228;1227;62276;-71
2022/09/04 06:28:33;;;;;;;4.80;3.90;;;;;;;17.39;68.17;101751.77;109567;1227;70950;-73
2022/09/04 06:31:47;;;;;;;5.80;4.10;;;;;;;17.31;67.05;101751.39;109577;1226;62470;-63
2022/09/04 06:34:29;;;;;;;5.80;4.70;;;;;;;17.38;68.17;101751.82;109396;1227;59536;-63
2022/09/04 06:37:04;;;;;;;5.80;4.00;;;;;;;17.58;67.83;101751.38;109567;1227;57919;-62
2022/09/04 06:40:00;;;;;;;6.80;4.40;;;;;;;17.63;67.04;101751.16;109540;1227;72754;-64
2022/09/04 06:42:49;;;;;;;7.20;4.50;;;;;;;17.74;65.09;101749.27;109438;1227;72708;-64
2022/09/04 06:45:48;;;;;;;5.20;4.10;;;;;;;17.57;63.30;101754.07;109497;1227;59871;-62
2022/09/04 06:48:37;;;;;;;4.60;3.80;;;;;;;17.37;62.82;101755.15;109492;1226;73686;-64
2022/09/04 06:51:32;;;;;;;7.50;4.00;;;;;;;17.44;62.41;101758.05;109641;1227;62489;-63
2022/09/04 06:54:56;;;;;;;4.80;3.60;;;;;;;17.35;60.18;101754.16;109584;1227;61866;-64
2022/09/04 06:57:34;;;;;;;;;;;;;;;17.41;61.71;101752.85;109548;1226;75415;-67
2022/09/04 07:00:08;;;;;;;6.40;3.50;;;;;;;17.71;62.40;101753.09;109615;1227;62054;-63
2022/09/04 07:03:17;;;;;;;5.50;3.90;;;;;;;17.68;59.11;101756.35;109607;1227;60962;-66
2022/09/04 07:06:03;;;;;;;7.00;3.40;;;;;;;17.58;57.10;101759.31;109486;1227;62437;-63
2022/09/04 07:09:19;;;;;;;6.20;3.20;;;;;;;17.68;57.04;101757.04;109521;1226;59667;-65
2022/09/04 07:12:16;;;;;;;4.80;3.00;;;;;;;18.00;57.44;101757.08;109593;1226;59571;-70
2022/09/04 07:15:06;;;;;;;5.40;2.90;;;;;;;18.12;56.34;101764.13;109710;1227;63786;-69
2022/09/04 07:18:05;;;;;;;4.40;2.80;;;;;;;18.10;54.68;101763.80;109573;1227;61494;-69
2022/09/04 07:20:51;;;;;;;6.40;3.00;;;;;;;17.97;53.11;101765.13;109593;1226;71172;-73
2022/09/04 07:24:04;;;;;;;4.50;2.60;;;;;;;18.12;53.71;101768.00;109590;1226;74735;-69
2022/09/04 07:26:55;;;;;;;6.80;3.20;;;;;;;18.29;52.36;101771.10;109154;1227;62784;-69
2022/09/04 07:29:38;;;;;;;7.80;2.80;;;;;;;18.08;52.84;101777.41;109367;1226;59921;-71
2022/09/04 07:32:20;;;;;;;;;;;;;;;18.17;52.18;101779.23;109612;1226;74088;-71
2022/09/04 07:35:06;;;;;;;3.50;2.80;;;;;;;18.14;53.06;101773.34;109597;1226;71809;-73
2022/09/04 07:38:31;;;;;;;7.70;3.30;;;;;;;18.23;53.45;101774.12;109676;1227;60806;-71
2022/09/04 07:41:22;;;;;;;5.70;2.90;;;;;;;18.38;52.50;101773.37;109607;1227;63166;-71
2022/09/04 07:44:42;;;;;;;5.20;3.80;;;;;;;18.49;51.82;101775.88;109578;1227;59635;-70
2022/09/04 07:47:45;;;;;;;3.50;2.60;;;;;;;18.83;52.87;101782.91;108743;1226;59622;-70
2022/09/04 07:50:21;;;;;;;7.20;3.10;;;;;;;18.69;52.01;101784.17;109519;1227;74294;-70
2022/09/04 07:53:17;;;;;;;4.50;2.90;;;;;;;18.71;51.76;101783.13;109490;1226;60941;-68
2022/09/04 07:55:49;;;;;;;5.20;2.90;;;;;;;19.01;51.47;101786.95;109565;1227;69751;-69
2022/09/04 07:58:27;;;;;;;5.20;3.00;;;;;;;18.96;50.76;101785.06;109683;1227;74426;-71
2022/09/04 08:01:12;;;;;;;8.70;3.60;;;;;;;19.19;51.37;101790.21;109574;1227;59608;-69
2022/09/04 08:04:13;;;;;;;4.10;3.10;;;;;;;18.92;50.32;101790.17;109600;1227;61241;-72
2022/09/04 08:06:49;;;;;;;4.20;2.90;;;;;;;18.77;51.01;101784.16;109361;1227;65497;-80
2022/09/04 08:09:57;;;;;;;5.40;3.20;;;;;;;18.54;52.26;101783.85;109531;1227;61506;-71
2022/09/04 08:12:46;;;;;;;4.80;3.00;;;;;;;18.75;52.82;101788.23;109472;1227;71175;-70
2022/09/04 08:15:26;;;;;;;4.90;2.80;;;;;;;19.16;51.42;101790.27;109514;1227;74806;-69
2022/09/04 08:18:06;;;;;;;6.20;3.00;;;;;;;19.08;49.39;101787.69;109325;1227;59655;-69
2022/09/04 08:21:19;;;;;;;5.90;2.90;;;;;;;19.26;49.02;101789.38;109318;1227;60542;-67
2022/09/04 08:24:33;;;;;;;3.70;2.30;;;;;;;19.26;48.21;101792.35;109746;1227;63180;-69
2022/09/04 08:27:39;;;;;;;5.60;4.90;;;;;;;19.23;46.26;101792.51;109458;1226;71580;-70
2022/09/04 08:30:18;;;;;;;5.10;2.60;;;;;;;19.28;46.84;101790.05;109545;1226;59910;-74
2022/09/04 08:33:20;;;;;;;5.20;2.40;;;;;;;19.34;45.10;101787.44;109414;1226;74226;-68
2022/09/04 08:36:17;;;;;;;4.00;2.60;;;;;;;19.46;45.32;101786.13;109399;1227;61635;-69
2022/09/04 08:38:55;;;;;;;4.10;2.30;;;;;;;19.61;45.43;101783.15;109252;1227;61807;-68
2022/09/04 08:41:57;;;;;;;3.90;2.00;;;;;;;19.60;46.26;101786.04;109383;1226;75028;-70
2022/09/04 08:45:14;;;;;;;4.40;2.30;;;;;;;19.54;45.27;101783.82;109507;1226;61454;-69
2022/09/04 08:48:40;;;;;;;2.80;2.00;;;;;;;19.65;44.21;101777.98;109197;1230;68744;-68
2022/09/04 08:52:11;;;;;;;2.90;1.90;;;;;;;20.04;44.22;101777.48;109155;1227;74009;-69
2022/09/04 08:54:53;;;;;;;4.10;1.90;;;;;;;20.10;42.77;101772.52;108491;1235;61165;-73
2022/09/04 08:57:41;;;;;;;4.20;2.20;;;;;;;20.30;41.68;101778.83;108767;1235;59444;-70
2022/09/04 09:00:47;;;;;;;2.60;1.80;;;;;;;20.36;40.51;101768.02;109539;1226;74265;-70
2022/09/04 09:03:34;;;;;;;2.80;2.00;;;;;;;20.64;40.31;101771.58;109257;1227;73102;-71
2022/09/04 09:06:11;;;;;;;5.20;2.10;;;;;;;20.92;40.51;101768.70;109417;1227;70917;-69
2022/09/04 09:08:53;;;;;;;15.40;7.50;;;;;;;20.72;39.63;101767.65;109517;1227;62888;-69
2022/09/04 09:12:28;;;;;;;151.10;51.70;;;;;;;20.42;39.57;101770.27;109473;1227;60702;-70
2022/09/04 09:15:20;;;;;;;8.60;3.40;;;;;;;20.49;40.11;101768.00;109060;1226;58153;-70
2022/09/04 09:17:53;;;;;;;4.80;3.20;;;;;;;20.55;40.00;101760.73;109212;1228;63728;-71
2022/09/04 09:20:47;;;;;;;18.40;16.50;;;;;;;20.82;39.99;101757.66;109407;1227;71278;-70
2022/09/04 09:23:40;;;;;;;7.60;6.70;;;;;;;20.56;39.86;101759.98;109375;1227;60418;-68
2022/09/04 09:26:32;;;;;;;7.00;4.80;;;;;;;20.72;40.09;101758.52;109254;1227;63257;-70
2022/09/04 09:29:32;;;;;;;4.60;3.20;;;;;;;20.64;38.44;101758.18;109492;1225;61467;-71
2022/09/04 09:32:08;;;;;;;7.50;6.20;;;;;;;20.62;38.70;101755.35;109537;1228;59629;-71
2022/09/04 09:35:22;;;;;;;7.10;4.40;;;;;;;20.58;39.86;101756.73;109620;1227;74686;-71
2022/09/04 09:38:48;;;;;;;8.00;3.30;;;;;;;20.72;39.05;101765.33;109738;1227;63828;-70
2022/09/04 09:41:42;;;;;;;5.80;3.00;;;;;;;20.71;39.26;101755.86;109254;1228;69835;-70
2022/09/04 09:44:27;;;;;;;4.10;2.30;;;;;;;20.92;38.77;101757.70;109139;1229;64747;-72
2022/09/04 09:47:16;;;;;;;5.50;2.60;;;;;;;21.35;37.45;101753.04;109247;1227;60720;-71
2022/09/04 09:50:30;;;;;;;4.40;2.50;;;;;;;21.18;36.85;101752.32;109281;1227;60157;-71
2022/09/04 09:53:43;;;;;;;7.30;5.90;;;;;;;21.53;37.07;101748.91;109312;1228;74890;-70
2022/09/04 09:57:21;;;;;;;31.80;25.40;;;;;;;21.40;37.01;101754.16;109400;1226;62243;-70
2022/09/04 10:00:21;;;;;;;4.10;2.40;;;;;;;21.46;36.46;101738.63;109412;1227;70766;-71
2022/09/04 10:03:01;;;;;;;4.20;2.60;;;;;;;21.51;36.80;101737.23;109412;1227;74659;-70
2022/09/04 10:05:53;;;;;;;4.90;3.50;;;;;;;21.40;36.75;101744.02;109601;1226;59426;-69
2022/09/04 10:08:41;;;;;;;43.80;23.70;;;;;;;21.38;37.28;101747.41;109491;1227;59497;-71
2022/09/04 10:12:07;;;;;;;8.40;4.80;;;;;;;21.60;36.75;101744.52;109377;1227;74739;-69
2022/09/04 10:15:18;;;;;;;6.10;3.70;;;;;;;21.89;36.74;101741.45;109324;1227;72134;-72
2022/09/04 10:18:04;;;;;;;8.30;3.10;;;;;;;22.44;36.82;101737.41;109560;1227;70719;-70
2022/09/04 10:21:00;;;;;;;5.10;3.40;;;;;;;22.22;35.73;101738.36;109463;1227;63771;-73
2022/09/04 10:24:30;;;;;;;5.50;3.80;;;;;;;22.16;35.31;101740.90;109247;1227;59603;-69
2022/09/04 10:27:26;;;;;;;6.70;4.00;;;;;;;22.10;35.24;101741.40;109364;1227;59566;-71
2022/09/04 10:30:09;;;;;;;9.70;5.30;;;;;;;22.12;33.35;101742.45;109563;1226;74482;-68
2022/09/04 10:33:03;;;;;;;9.50;6.20;;;;;;;22.49;33.92;101742.95;109252;1228;61559;-71
2022/09/04 10:36:03;;;;;;;6.70;3.80;;;;;;;22.77;33.11;101741.18;109549;1227;70827;-72
2022/09/04 10:42:29;;;;;;;7.50;5.40;;;;;;;23.03;33.16;101739.64;109334;1228;61341;-70
2022/09/04 10:45:15;;;;;;;5.90;4.00;;;;;;;23.15;32.25;101738.44;109570;1227;57876;-71
2022/09/04 10:48:16;;;;;;;9.90;7.40;;;;;;;23.10;31.34;101734.19;109521;1227;63858;-69
2022/09/04 10:51:39;;;;;;;4.60;3.70;;;;;;;23.12;32.84;101735.72;109677;1227;60890;-72
2022/09/04 10:54:44;;;;;;;;;;;;;;;22.86;32.94;101734.33;109490;1227;70563;-71
2022/09/04 10:58:10;;;;;;;6.60;4.60;;;;;;;22.99;32.93;101735.25;109778;1227;74711;-76
2022/09/04 11:01:18;;;;;;;7.70;4.70;;;;;;;23.40;32.86;101732.85;108871;1235;59593;-71
2022/09/04 11:04:05;;;;;;;6.40;5.40;;;;;;;23.35;31.95;101728.04;109042;1233;59645;-75
2022/09/04 11:06:57;;;;;;;8.60;5.00;;;;;;;23.31;32.19;101727.81;109683;1227;74845;-71
2022/09/04 11:09:39;;;;;;;6.90;4.60;;;;;;;23.65;33.01;101730.40;109635;1227;72122;-69
2022/09/04 11:12:46;;;;;;;8.20;5.10;;;;;;;23.76;32.91;101727.45;109523;1227;60351;-71
2022/09/04 11:15:35;;;;;;;8.70;5.10;;;;;;;23.58;33.70;101723.89;109594;1227;63172;-72
2022/09/04 11:18:23;;;;;;;7.20;5.30;;;;;;;23.88;33.58;101721.27;109627;1227;59601;-69
2022/09/04 11:21:50;;;;;;;9.60;5.70;;;;;;;24.19;33.34;101719.00;109634;1227;59553;-71
2022/09/04 11:25:17;;;;;;;10.70;6.90;;;;;;;24.63;32.19;101719.81;109030;1232;73838;-71
2022/09/04 11:28:03;;;;;;;7.70;6.30;;;;;;;23.89;32.07;101724.69;108858;1233;61317;-72
2022/09/04 11:30:50;;;;;;;11.90;7.30;;;;;;;23.55;32.08;101719.10;109690;1227;59971;-69
2022/09/04 11:33:52;;;;;;;8.80;6.70;;;;;;;24.02;32.12;101714.02;109652;1227;62439;-70
2022/09/04 11:36:34;;;;;;;7.90;5.90;;;;;;;24.33;32.23;101706.33;109329;1227;60455;-69
2022/09/04 11:39:10;;;;;;;7.80;5.80;;;;;;;24.44;31.39;101705.46;109395;1226;61966;-70
2022/09/04 11:42:19;;;;;;;6.70;5.80;;;;;;;24.75;31.81;101705.19;109385;1227;63537;-71
2022/09/04 11:45:16;;;;;;;9.90;5.80;;;;;;;25.01;31.41;101708.06;109513;1226;60775;-71
2022/09/04 11:48:04;;;;;;;8.70;5.90;;;;;;;24.98;30.84;101707.45;109444;1226;59337;-70
2022/09/04 11:50:36;;;;;;;6.60;5.30;;;;;;;24.53;31.02;101705.09;109415;1227;74409;-71
2022/09/04 11:53:47;;;;;;;9.00;6.30;;;;;;;24.62;31.39;101700.22;109230;1227;60300;-67
2022/09/04 11:56:29;;;;;;;9.20;5.90;;;;;;;23.98;31.05;101703.04;109383;1227;60495;-71
2022/09/04 11:59:53;;;;;;;7.40;5.50;;;;;;;24.04;31.32;101701.70;109481;1227;63613;-71
2022/09/04 12:03:04;;;;;;;6.90;5.50;;;;;;;23.93;31.56;101700.66;109582;1227;61592;-71
2022/09/04 12:06:05;;;;;;;8.10;5.80;;;;;;;23.76;31.25;101705.69;109543;1227;59977;-70
2022/09/04 12:09:03;;;;;;;7.10;5.40;;;;;;;23.89;31.78;101707.31;109540;1227;73965;-70
2022/09/04 12:12:17;;;;;;;8.00;5.90;;;;;;;24.59;31.27;101705.52;109517;1226;60951;-70
2022/09/04 12:15:21;;;;;;;8.30;5.60;;;;;;;24.65;30.93;101711.16;109373;1227;61698;-71
2022/09/04 12:18:36;;;;;;;7.30;5.60;;;;;;;24.43;30.00;101708.55;109307;1227;75190;-71
2022/09/04 12:21:36;;;;;;;7.40;5.70;;;;;;;25.43;29.61;101709.54;109316;1227;61956;-71
2022/09/04 12:24:36;;;;;;;7.90;5.00;;;;;;;26.54;29.57;101705.05;109528;1227;70242;-66
2022/09/04 12:27:42;;;;;;;6.50;5.40;;;;;;;26.57;28.44;101708.94;109457;1227;65443;-71
2022/09/04 12:30:24;;;;;;;8.90;6.00;;;;;;;26.22;27.55;101706.21;109386;1228;59565;-74
2022/09/04 12:33:16;;;;;;;8.30;5.90;;;;;;;26.07;27.65;101699.98;109764;1227;59578;-72
2022/09/04 12:41:12;;;;;;;6.90;5.70;;;;;;;25.81;26.75;101687.33;104672;1282;601052;-68
2022/09/04 12:43:53;;;;;;;6.20;4.80;;;;;;;26.40;26.47;101690.38;106224;1266;60343;-70
2022/09/04 12:46:35;;;;;;;7.20;6.10;;;;;;;25.96;26.71;101690.98;106868;1256;61717;-65
2022/09/04 12:49:40;;;;;;;7.10;5.80;;;;;;;24.64;27.90;101695.59;106663;1256;72705;-69
2022/09/04 12:52:30;;;;;;;6.00;5.20;;;;;;;23.91;29.13;101700.57;106504;1256;62185;-70
2022/09/04 12:55:11;;;;;;;6.90;5.60;;;;;;;24.42;28.69;101697.66;105399;1254;1777183;-70
2022/09/04 12:58:02;;;;;;;6.80;5.10;;;;;;;25.08;28.28;101690.85;106771;1254;63299;-69
2022/09/04 13:00:48;;;;;;;8.00;5.30;;;;;;;25.28;28.31;101688.90;106653;1255;60251;-81
2022/09/04 13:04:05;;;;;;;8.40;5.70;;;;;;;26.89;26.64;101682.91;107010;1256;57518;-73
2022/09/04 13:07:13;;;;;;;6.30;5.40;;;;;;;27.27;26.33;101681.13;106882;1254;73013;-74
2022/09/04 13:10:02;;;;;;;7.20;5.10;;;;;;;27.82;25.44;101681.38;107034;1253;72595;-73
2022/09/04 13:12:41;;;;;;;6.00;5.10;;;;;;;27.75;24.99;101685.84;107037;1254;70089;-71
2022/09/04 13:15:31;;;;;;;7.60;5.40;;;;;;;27.65;25.59;101687.71;106951;1256;63198;-74
2022/09/04 13:18:25;;;;;;;7.10;5.10;;;;;;;27.99;25.13;101689.99;107051;1254;60534;-72
2022/09/04 13:21:18;;;;;;;7.30;4.70;;;;;;;28.11;24.95;101689.90;107088;1254;59259;-71
2022/09/04 13:24:40;;;;;;;9.20;5.50;;;;;;;27.58;25.07;101687.48;106919;1254;61779;-72
2022/09/04 13:27:58;;;;;;;7.50;5.00;;;;;;;28.83;24.56;101688.67;106907;1254;71544;-74
2022/09/04 13:30:30;;;;;;;6.20;4.40;;;;;;;28.98;23.53;101689.55;106984;1254;70951;-73
2022/09/04 13:33:46;;;;;;;7.30;4.80;;;;;;;28.62;24.28;101686.50;106939;1256;64573;-70
2022/09/04 13:37:14;;;;;;;5.60;4.30;;;;;;;28.68;24.71;101692.86;107052;1253;61760;-76
2022/09/04 13:39:54;;;;;;;7.70;4.20;;;;;;;29.07;24.41;101689.05;107131;1253;59069;-72
2022/09/04 13:43:02;;;;;;;5.70;4.30;;;;;;;29.20;23.46;101687.13;107240;1253;61897;-72